Eiwa Maru — JG5742 — position and weather

sailwx.info

Track history (hours):
 
Tides and Currents Weather Stations Pressure Air Temp Water Temp Dewpoint Dewpoint Depression Visibility Wind Speed Wind Dir Waves Ship Positions

Eiwa Maru

Last reported at 2018-Feb-21 21:00 UTC. Time now 2018-Feb-21 21:04 UTC.
Position N 33°54' E 131°11'.

Length 80 m; draft 4 m.

Type: Ship (hazmat cat A). MMSI: 431101045.

Date/timePositionNaut miles runAvg speedWind from/ knotsBaromVisibWave heightAir tempDewpointWater temp
2018-Feb-21 21:00N 33°54' E 131°11'0 0.0
2018-Feb-21 20:30N 33°54' E 131°11'0 0.0
2018-Feb-21 20:00N 33°54' E 131°11'0 0.0
2018-Feb-21 19:30N 33°54' E 131°11'0 0.0
2018-Feb-21 19:00N 33°54' E 131°11'0 0.0
2018-Feb-21 18:30N 33°54' E 131°11'0 0.0
2018-Feb-21 18:00N 33°54' E 131°11'0 0.0
2018-Feb-21 17:30N 33°54' E 131°11'0 0.1
2018-Feb-21 17:00N 33°54' E 131°11'5 9.3
2018-Feb-21 16:30N 33°52' E 131°16'713.6
2018-Feb-21 15:59N 33°51' E 131°25'713.7
2018-Feb-21 15:30N 33°49' E 131°32'713.7
2018-Feb-21 15:00N 33°48' E 131°40'1813.5
2018-Feb-21 13:42N 33°46' E 132°01'313.3
2018-Feb-21 13:30N 33°46' E 132°05'812.9
2018-Feb-21 12:54N 33°50' E 132°13'513.2
2018-Feb-21 12:30N 33°50' E 132°19'1112.8
2018-Feb-21 11:38N 33°53' E 132°32'214.0
2018-Feb-21 11:29N 33°54' E 132°34'713.9
2018-Feb-21 10:57N 33°57' E 132°42'87 3.5
2018-Feb-20 09:53N 34°25' E 134°22'512.3
2018-Feb-20 09:30N 34°27' E 134°27'612.3
2018-Feb-20 08:59N 34°29' E 134°34'612.2
2018-Feb-20 08:29N 34°32' E 134°41'611.8
2018-Feb-20 08:01N 34°34' E 134°47'510.7
2018-Feb-20 07:30N 34°36' E 134°53'510.3
2018-Feb-20 07:00N 34°37' E 134°59'4 9.1
2018-Feb-20 06:31N 34°36' E 135°04'510.6
2018-Feb-20 06:00N 34°30' E 135°05'612.3
2018-Feb-20 05:31N 34°24' E 135°03'612.0
2018-Feb-20 05:00N 34°19' E 134°60'611.9
2018-Feb-20 04:30N 34°13' E 134°60'612.2
2018-Feb-20 04:01N 34°07' E 135°01'612.1
2018-Feb-20 03:30N 34°01' E 135°02'612.1
2018-Feb-20 02:59N 33°55' E 135°02'102 8.4
2018-Feb-19 14:55N 34°38' E 136°53'513.1
2018-Feb-19 14:30N 34°42' E 136°49'713.4
2018-Feb-19 14:00N 34°48' E 136°45'713.2
2018-Feb-19 13:29N 34°55' E 136°43'4 9.4
2018-Feb-19 13:00N 34°57' E 136°39'1 1.7
2018-Feb-19 12:30N 34°57' E 136°38'0 0.0
2018-Feb-19 12:00N 34°57' E 136°38'0 0.0
2018-Feb-19 11:26N 34°57' E 136°38'0 0.0
2018-Feb-19 11:00N 34°57' E 136°38'0 0.0
2018-Feb-19 10:30N 34°57' E 136°38'0 0.0
2018-Feb-19 10:00N 34°57' E 136°38'0 0.0
2018-Feb-19 09:30N 34°57' E 136°38'0 0.0
2018-Feb-19 09:00N 34°57' E 136°38'0 0.0
2018-Feb-19 08:30N 34°57' E 136°38'0 0.0
2018-Feb-19 08:00N 34°57' E 136°38'0 0.0
2018-Feb-19 07:30N 34°57' E 136°38'0 0.0
2018-Feb-19 07:00N 34°57' E 136°38'2 3.5
2018-Feb-19 06:30N 34°58' E 136°39'5 9.2
2018-Feb-19 06:00N 34°54' E 136°41'0 0.8
2018-Feb-19 05:29N 34°53' E 136°41'0 0.1
2018-Feb-19 04:59N 34°53' E 136°40'0 0.0
2018-Feb-19 04:29N 34°53' E 136°40'0 0.0
2018-Feb-19 03:59N 34°53' E 136°40'0 0.0
2018-Feb-19 03:29N 34°53' E 136°40'0 0.0
2018-Feb-19 02:59N 34°53' E 136°40'0 0.0
2018-Feb-19 02:29N 34°53' E 136°40'0 0.1
2018-Feb-19 01:59N 34°53' E 136°41'0 0.0
2018-Feb-19 01:29N 34°53' E 136°41'0 0.0
2018-Feb-19 00:59N 34°53' E 136°41'0 0.0
2018-Feb-19 00:29N 34°53' E 136°41'0 0.1
2018-Feb-18 23:59N 34°53' E 136°41'0 0.0
2018-Feb-18 23:26N 34°53' E 136°41'0 0.0
2018-Feb-18 22:47N 34°53' E 136°41'0 0.0
2018-Feb-18 22:29N 34°53' E 136°41'0 0.0
2018-Feb-18 21:59N 34°53' E 136°41'0 0.0
2018-Feb-18 21:23N 34°53' E 136°41'0 0.0
2018-Feb-18 20:59N 34°53' E 136°41'0 0.0
2018-Feb-18 20:29N 34°53' E 136°41'0 0.0
2018-Feb-18 19:59N 34°53' E 136°41'0 0.1
2018-Feb-18 19:30N 34°53' E 136°41'611.0
2018-Feb-18 18:59N 34°49' E 136°45'613.1
2018-Feb-18 18:30N 34°44' E 136°50'1512.8
2018-Feb-18 17:19N 34°33' E 137°03'513.1
2018-Feb-18 16:55N 34°34' E 137°09'6212.0
2018-Feb-18 11:47N 34°39' E 138°24'512.2
2018-Feb-18 11:22N 34°39' E 138°30'411.9
2018-Feb-18 11:00N 34°38' E 138°35'712.3
2018-Feb-18 10:27N 34°37' E 138°43'612.0
2018-Feb-18 09:59N 34°35' E 138°50'511.3
2018-Feb-18 09:30N 34°35' E 138°56'713.0
2018-Feb-18 08:58N 34°40' E 139°02'813.9
2018-Feb-18 08:25N 34°47' E 139°07'1113.4
2018-Feb-18 07:37N 34°55' E 139°15'212.7
2018-Feb-18 07:28N 34°56' E 139°17'612.2
2018-Feb-18 07:00N 34°58' E 139°24'711.6
2018-Feb-18 06:25N 35°02' E 139°31'512.3
2018-Feb-18 05:59N 35°04' E 139°36'613.4
2018-Feb-18 05:30N 35°08' E 139°43'612.9
2018-Feb-18 05:00N 35°14' E 139°46'612.5
2018-Feb-18 04:30N 35°19' E 139°43'612.1
2018-Feb-18 04:01N 35°25' E 139°44'713.6
2018-Feb-18 03:31N 35°29' E 139°51'712.9
2018-Feb-18 03:00N 35°35' E 139°54'0 0.2
2018-Feb-18 02:30N 35°35' E 139°54'0 0.0
2018-Feb-18 01:50N 35°35' E 139°54'0 0.0
2018-Feb-18 01:29N 35°35' E 139°54'0 0.0
2018-Feb-18 00:59N 35°35' E 139°54'0 0.0
2018-Feb-18 00:26N 35°35' E 139°54'0 0.0
2018-Feb-17 23:59N 35°35' E 139°54'0 0.0
2018-Feb-17 23:23N 35°35' E 139°54'0 0.0
2018-Feb-17 22:59N 35°35' E 139°54'0 0.1
2018-Feb-17 22:23N 35°35' E 139°54'0 0.1
2018-Feb-17 21:56N 35°35' E 139°54'0 0.0
2018-Feb-17 21:29N 35°35' E 139°54'0 0.0
2018-Feb-17 20:56N 35°35' E 139°54'0 0.1
2018-Feb-17 20:23N 35°35' E 139°54'0 0.1
2018-Feb-17 19:50N 35°35' E 139°54'0 0.0
2018-Feb-17 19:29N 35°35' E 139°54'0 0.0
2018-Feb-17 18:59N 35°35' E 139°54'0 0.0
2018-Feb-17 18:29N 35°35' E 139°54'0 0.0
2018-Feb-17 17:59N 35°35' E 139°54'0 0.0
2018-Feb-17 17:29N 35°35' E 139°54'0 0.0
2018-Feb-17 16:59N 35°35' E 139°54'0 0.0
2018-Feb-17 16:29N 35°35' E 139°54'0 0.1
2018-Feb-17 15:41N 35°35' E 139°54'0 0.0
2018-Feb-17 15:29N 35°35' E 139°54'0 0.0
2018-Feb-17 14:53N 35°35' E 139°54'0 0.0
2018-Feb-17 14:29N 35°35' E 139°54'0 0.0
2018-Feb-17 13:59N 35°35' E 139°54'0 0.1
2018-Feb-17 13:29N 35°35' E 139°54'0 0.1
2018-Feb-17 12:56N 35°35' E 139°54'0 0.1
2018-Feb-17 12:29N 35°35' E 139°54'0 0.1
2018-Feb-17 11:59N 35°35' E 139°54'0 0.0
2018-Feb-17 11:26N 35°35' E 139°54'0 0.0
2018-Feb-17 10:59N 35°35' E 139°54'0 0.1
2018-Feb-17 10:29N 35°35' E 139°54'0 0.1
2018-Feb-17 09:56N 35°35' E 139°54'0 0.0
2018-Feb-17 09:26N 35°35' E 139°54'0 0.1
2018-Feb-17 08:59N 35°35' E 139°54'0 0.1
2018-Feb-17 08:29N 35°35' E 139°54'0 0.0
2018-Feb-17 07:50N 35°35' E 139°54'0 0.1
2018-Feb-17 07:23N 35°35' E 139°54'0 0.1
2018-Feb-17 06:50N 35°35' E 139°54'0 0.1
2018-Feb-17 06:11N 35°35' E 139°54'0 0.2
2018-Feb-17 05:59N 35°35' E 139°54'0 0.0
2018-Feb-17 04:14N 35°35' E 139°54'0 0.0
2018-Feb-17 03:59N 35°35' E 139°54'4 7.5
2018-Feb-17 03:30N 35°34' E 139°59'4 7.8
2018-Feb-17 02:57N 35°32' E 140°03'0 0.0
2018-Feb-17 02:23N 35°32' E 140°03'0 0.0
2018-Feb-17 02:00N 35°32' E 140°03'0 0.0
2018-Feb-17 01:28N 35°32' E 140°03'0 0.0
2018-Feb-17 00:46N 35°32' E 140°03'0 0.0
2018-Feb-17 00:07N 35°32' E 140°03'0 0.0
2018-Feb-16 23:58N 35°32' E 140°03'0 0.5
2018-Feb-16 23:30N 35°32' E 140°03'1 2.4
2018-Feb-16 23:00N 35°33' E 140°02'0 0.1
2018-Feb-16 22:30N 35°33' E 140°02'0 0.0
2018-Feb-16 22:00N 35°33' E 140°02'0 0.0
2018-Feb-16 21:25N 35°33' E 140°02'0 0.0
2018-Feb-16 20:55N 35°33' E 140°02'0 0.0
2018-Feb-16 20:25N 35°33' E 140°02'0 0.0
2018-Feb-16 19:55N 35°33' E 140°02'0 0.0
2018-Feb-16 19:28N 35°33' E 140°02'0 0.0
2018-Feb-16 18:55N 35°33' E 140°02'0 0.0
2018-Feb-16 18:25N 35°33' E 140°02'0 0.0
2018-Feb-16 17:55N 35°33' E 140°02'0 0.0
2018-Feb-16 17:25N 35°33' E 140°02'0 0.0
2018-Feb-16 16:55N 35°33' E 140°02'0 0.0
2018-Feb-16 16:25N 35°33' E 140°02'0 0.0
2018-Feb-16 15:55N 35°33' E 140°02'0 0.0
2018-Feb-16 15:25N 35°33' E 140°02'0 0.0
2018-Feb-16 14:55N 35°33' E 140°02'0 0.1
2018-Feb-16 14:25N 35°33' E 140°02'0 0.0
2018-Feb-16 13:55N 35°33' E 140°02'0 0.0
2018-Feb-16 13:28N 35°33' E 140°02'0 0.0
2018-Feb-16 12:55N 35°33' E 140°02'0 0.0
2018-Feb-16 12:28N 35°33' E 140°02'0 0.0
2018-Feb-16 11:55N 35°33' E 140°02'0 0.0
2018-Feb-16 11:25N 35°33' E 140°02'0 0.0
2018-Feb-16 10:55N 35°33' E 140°02'0 0.0
2018-Feb-16 10:25N 35°33' E 140°02'0 0.0
2018-Feb-16 09:55N 35°33' E 140°02'0 0.0
2018-Feb-16 09:28N 35°33' E 140°02'0 0.0
2018-Feb-16 08:55N 35°33' E 140°02'0 0.0
2018-Feb-16 08:25N 35°33' E 140°02'0 0.0
2018-Feb-16 07:55N 35°33' E 140°02'0 0.0
2018-Feb-16 07:28N 35°33' E 140°02'0 0.0
2018-Feb-16 06:58N 35°33' E 140°02'0 0.0
2018-Feb-16 06:25N 35°33' E 140°02'0 0.1
2018-Feb-16 05:55N 35°33' E 140°02'0 0.0
2018-Feb-16 05:25N 35°33' E 140°02'0 0.0
2018-Feb-16 04:55N 35°33' E 140°02'0 0.0
2018-Feb-16 04:25N 35°33' E 140°02'0 0.0
2018-Feb-16 03:55N 35°33' E 140°02'0 0.0
2018-Feb-16 03:25N 35°33' E 140°02'0 0.1
2018-Feb-16 02:58N 35°33' E 140°02'0 0.0
2018-Feb-16 02:28N 35°33' E 140°02'0 0.0
2018-Feb-16 01:55N 35°33' E 140°02'0 0.0
2018-Feb-16 01:25N 35°33' E 140°02'0 0.0
2018-Feb-16 00:55N 35°33' E 140°02'0 0.0
2018-Feb-16 00:25N 35°33' E 140°02'0 0.1
2018-Feb-16 00:00N 35°33' E 140°02'4 8.6
2018-Feb-15 23:30N 35°31' E 139°57'612.2
2018-Feb-15 23:01N 35°28' E 139°51'611.9
2018-Feb-15 22:31N 35°23' E 139°46'611.2
2018-Feb-15 22:00N 35°18' E 139°45'611.9
2018-Feb-15 21:30N 35°12' E 139°47'611.7
2018-Feb-15 21:00N 35°06' E 139°45'612.0
2018-Feb-15 20:29N 35°02' E 139°40'712.4
2018-Feb-15 19:53N 34°57' E 139°33'513.8
2018-Feb-15 19:30N 34°54' E 139°27'714.0
2018-Feb-15 19:00N 34°50' E 139°20'713.4
2018-Feb-15 18:30N 34°46' E 139°14'612.3
2018-Feb-15 18:00N 34°42' E 139°08'611.6
2018-Feb-15 17:30N 34°39' E 139°02'611.5
2018-Feb-15 17:00N 34°36' E 138°57'612.5
2018-Feb-15 16:30N 34°34' E 138°49'812.8
2018-Feb-15 15:55N 34°33' E 138°40'512.8
2018-Feb-15 15:30N 34°33' E 138°34'713.1
2018-Feb-15 15:00N 34°33' E 138°26'613.2
2018-Feb-15 14:30N 34°33' E 138°18'714.0
2018-Feb-15 14:00N 34°32' E 138°09'713.5
2018-Feb-15 13:30N 34°33' E 138°01'3812.4
2018-Feb-15 10:26N 34°32' E 137°15'1912.2
2018-Feb-15 08:52N 34°38' E 136°53'512.8
2018-Feb-15 08:30N 34°42' E 136°49'613.0
2018-Feb-15 08:00N 34°47' E 136°46'612.7
2018-Feb-15 07:30N 34°53' E 136°43'611.1
2018-Feb-15 07:00N 34°58' E 136°39'0 0.8
2018-Feb-15 06:30N 34°58' E 136°39'0 0.0
2018-Feb-15 05:58N 34°58' E 136°39'0 0.0
2018-Feb-15 05:30N 34°58' E 136°39'0 0.0
2018-Feb-15 05:00N 34°58' E 136°39'0 0.0
2018-Feb-15 04:29N 34°58' E 136°39'0 0.0
2018-Feb-15 04:00N 34°58' E 136°39'0 0.1
2018-Feb-15 03:30N 34°58' E 136°39'5 9.4
2018-Feb-15 03:00N 34°55' E 136°43'713.7
2018-Feb-15 02:30N 34°48' E 136°46'713.2
2018-Feb-15 02:00N 34°43' E 136°51'3410.6
2018-Feb-14 22:45N 34°09' E 136°48'3113.5
2018-Feb-14 20:29N 33°48' E 136°21'6410.5
2018-Feb-14 14:26N 33°50' E 135°04'614.1
2018-Feb-14 14:00N 33°54' E 134°59'713.7
2018-Feb-14 13:30N 33°59' E 134°54'713.6
2018-Feb-14 13:01N 34°04' E 134°49'713.8
2018-Feb-14 12:29N 34°10' E 134°43'713.8
2018-Feb-14 11:59N 34°15' E 134°38'613.4
2018-Feb-14 11:30N 34°18' E 134°31'713.3
2018-Feb-14 11:00N 34°21' E 134°24'712.9
2018-Feb-14 10:29N 34°23' E 134°16'612.2
2018-Feb-14 09:58N 34°26' E 134°09'10 0.4
2018-Feb-13 09:14N 34°25' E 134°21'312.6
2018-Feb-13 09:00N 34°26' E 134°24'612.8
2018-Feb-13 08:31N 34°28' E 134°31'612.3
2018-Feb-13 08:00N 34°31' E 134°38'612.1
2018-Feb-13 07:31N 34°33' E 134°45'611.9
2018-Feb-13 07:01N 34°35' E 134°52'611.5
2018-Feb-13 06:30N 34°37' E 134°58'5 9.8
2018-Feb-13 06:01N 34°36' E 135°04'611.6
2018-Feb-13 05:30N 34°36' E 135°11'612.2
2018-Feb-13 05:00N 34°36' E 135°18'611.4
2018-Feb-13 04:30N 34°35' E 135°25'1 2.4
2018-Feb-13 04:01N 34°34' E 135°26'0 0.0
2018-Feb-13 03:31N 34°34' E 135°26'0 0.0
2018-Feb-13 03:00N 34°34' E 135°26'0 0.0
2018-Feb-13 02:30N 34°34' E 135°26'0 0.0
2018-Feb-13 02:00N 34°34' E 135°26'0 0.0
2018-Feb-13 01:30N 34°34' E 135°26'0 0.0
2018-Feb-13 01:01N 34°34' E 135°26'0 0.0
2018-Feb-13 00:31N 34°34' E 135°26'0 0.0
2018-Feb-13 00:01N 34°34' E 135°26'0 0.0
2018-Feb-12 23:30N 34°34' E 135°26'0 0.0
2018-Feb-12 23:00N 34°34' E 135°26'1 2.2
2018-Feb-12 22:30N 34°35' E 135°25'4 7.1
2018-Feb-12 22:00N 34°36' E 135°21'2 4.3
2018-Feb-12 21:30N 34°36' E 135°18'0 0.0
2018-Feb-12 21:01N 34°36' E 135°18'0 0.0
2018-Feb-12 20:29N 34°36' E 135°18'0 0.0
2018-Feb-12 19:59N 34°36' E 135°18'0 0.0
2018-Feb-12 19:29N 34°36' E 135°18'0 0.0
2018-Feb-12 18:59N 34°36' E 135°18'0 0.0
2018-Feb-12 18:29N 34°36' E 135°18'0 0.0
2018-Feb-12 17:59N 34°36' E 135°18'0 0.0
2018-Feb-12 17:29N 34°36' E 135°18'0 0.0
2018-Feb-12 16:59N 34°36' E 135°18'0 0.0
2018-Feb-12 16:29N 34°36' E 135°18'0 0.0
2018-Feb-12 15:59N 34°35' E 135°18'0 0.0
2018-Feb-12 15:29N 34°36' E 135°18'0 0.0
2018-Feb-12 14:59N 34°36' E 135°18'0 0.0
2018-Feb-12 14:29N 34°36' E 135°18'0 0.0
2018-Feb-12 13:59N 34°36' E 135°18'0 0.0
2018-Feb-12 13:29N 34°36' E 135°18'0 0.0
2018-Feb-12 12:59N 34°36' E 135°18'0 0.0
2018-Feb-12 12:29N 34°36' E 135°18'0 0.0
2018-Feb-12 11:59N 34°36' E 135°18'0 0.0
2018-Feb-12 11:29N 34°36' E 135°18'0 0.0
2018-Feb-12 10:59N 34°36' E 135°18'0 0.0
2018-Feb-12 10:29N 34°36' E 135°18'0 0.0
2018-Feb-12 09:59N 34°36' E 135°18'0 0.0
2018-Feb-12 09:29N 34°36' E 135°18'0 0.2
2018-Feb-12 09:01N 34°35' E 135°18'510.4
2018-Feb-12 08:31N 34°35' E 135°12'713.7
2018-Feb-12 08:00N 34°35' E 135°04'612.3
2018-Feb-12 07:30N 34°36' E 134°56'713.9
2018-Feb-12 07:00N 34°33' E 134°48'713.6
2018-Feb-12 06:30N 34°30' E 134°41'713.6
2018-Feb-12 06:00N 34°28' E 134°33'713.5
2018-Feb-12 05:30N 34°25' E 134°25'813.8
2018-Feb-12 04:54N 34°24' E 134°16'614.4
2018-Feb-12 04:29N 34°26' E 134°09'  
Track history (hours):
 
Tides and Currents Weather Stations Pressure Air Temp Water Temp Dewpoint Dewpoint Depression Visibility Wind Speed Wind Dir Waves Ship Positions

Eiwa Maru

Last reported at 2018-Feb-21 21:00 UTC. Time now 2018-Feb-21 21:04 UTC.
Position N 33°54' E 131°11'.

Length 80 m; draft 4 m.

Type: Ship (hazmat cat A). MMSI: 431101045.

Date/timePositionNaut miles runAvg speedWind from/ knotsBaromVisibWave heightAir tempDewpointWater temp
2018-Feb-21 21:00N 33°54' E 131°11'0 0.0
2018-Feb-21 20:30N 33°54' E 131°11'0 0.0
2018-Feb-21 20:00N 33°54' E 131°11'0 0.0
2018-Feb-21 19:30N 33°54' E 131°11'0 0.0
2018-Feb-21 19:00N 33°54' E 131°11'0 0.0
2018-Feb-21 18:30N 33°54' E 131°11'0 0.0
2018-Feb-21 18:00N 33°54' E 131°11'0 0.0
2018-Feb-21 17:30N 33°54' E 131°11'0 0.1
2018-Feb-21 17:00N 33°54' E 131°11'5 9.3
2018-Feb-21 16:30N 33°52' E 131°16'713.6
2018-Feb-21 15:59N 33°51' E 131°25'713.7
2018-Feb-21 15:30N 33°49' E 131°32'713.7
2018-Feb-21 15:00N 33°48' E 131°40'1813.5
2018-Feb-21 13:42N 33°46' E 132°01'313.3
2018-Feb-21 13:30N 33°46' E 132°05'812.9
2018-Feb-21 12:54N 33°50' E 132°13'513.2
2018-Feb-21 12:30N 33°50' E 132°19'1112.8
2018-Feb-21 11:38N 33°53' E 132°32'214.0
2018-Feb-21 11:29N 33°54' E 132°34'713.9
2018-Feb-21 10:57N 33°57' E 132°42'87 3.5
2018-Feb-20 09:53N 34°25' E 134°22'512.3
2018-Feb-20 09:30N 34°27' E 134°27'612.3
2018-Feb-20 08:59N 34°29' E 134°34'612.2
2018-Feb-20 08:29N 34°32' E 134°41'611.8
2018-Feb-20 08:01N 34°34' E 134°47'510.7
2018-Feb-20 07:30N 34°36' E 134°53'510.3
2018-Feb-20 07:00N 34°37' E 134°59'4 9.1
2018-Feb-20 06:31N 34°36' E 135°04'510.6
2018-Feb-20 06:00N 34°30' E 135°05'612.3
2018-Feb-20 05:31N 34°24' E 135°03'612.0
2018-Feb-20 05:00N 34°19' E 134°60'611.9
2018-Feb-20 04:30N 34°13' E 134°60'612.2
2018-Feb-20 04:01N 34°07' E 135°01'612.1
2018-Feb-20 03:30N 34°01' E 135°02'612.1
2018-Feb-20 02:59N 33°55' E 135°02'102 8.4
2018-Feb-19 14:55N 34°38' E 136°53'513.1
2018-Feb-19 14:30N 34°42' E 136°49'713.4
2018-Feb-19 14:00N 34°48' E 136°45'713.2
2018-Feb-19 13:29N 34°55' E 136°43'4 9.4
2018-Feb-19 13:00N 34°57' E 136°39'1 1.7
2018-Feb-19 12:30N 34°57' E 136°38'0 0.0
2018-Feb-19 12:00N 34°57' E 136°38'0 0.0
2018-Feb-19 11:26N 34°57' E 136°38'0 0.0
2018-Feb-19 11:00N 34°57' E 136°38'0 0.0
2018-Feb-19 10:30N 34°57' E 136°38'0 0.0
2018-Feb-19 10:00N 34°57' E 136°38'0 0.0
2018-Feb-19 09:30N 34°57' E 136°38'0 0.0
2018-Feb-19 09:00N 34°57' E 136°38'0 0.0
2018-Feb-19 08:30N 34°57' E 136°38'0 0.0
2018-Feb-19 08:00N 34°57' E 136°38'0 0.0
2018-Feb-19 07:30N 34°57' E 136°38'0 0.0
2018-Feb-19 07:00N 34°57' E 136°38'2 3.5
2018-Feb-19 06:30N 34°58' E 136°39'5 9.2
2018-Feb-19 06:00N 34°54' E 136°41'0 0.8
2018-Feb-19 05:29N 34°53' E 136°41'0 0.1
2018-Feb-19 04:59N 34°53' E 136°40'0 0.0
2018-Feb-19 04:29N 34°53' E 136°40'0 0.0
2018-Feb-19 03:59N 34°53' E 136°40'0 0.0
2018-Feb-19 03:29N 34°53' E 136°40'0 0.0
2018-Feb-19 02:59N 34°53' E 136°40'0 0.0
2018-Feb-19 02:29N 34°53' E 136°40'0 0.1
2018-Feb-19 01:59N 34°53' E 136°41'0 0.0
2018-Feb-19 01:29N 34°53' E 136°41'0 0.0
2018-Feb-19 00:59N 34°53' E 136°41'0 0.0
2018-Feb-19 00:29N 34°53' E 136°41'0 0.1
2018-Feb-18 23:59N 34°53' E 136°41'0 0.0
2018-Feb-18 23:26N 34°53' E 136°41'0 0.0
2018-Feb-18 22:47N 34°53' E 136°41'0 0.0
2018-Feb-18 22:29N 34°53' E 136°41'0 0.0
2018-Feb-18 21:59N 34°53' E 136°41'0 0.0
2018-Feb-18 21:23N 34°53' E 136°41'0 0.0
2018-Feb-18 20:59N 34°53' E 136°41'0 0.0
2018-Feb-18 20:29N 34°53' E 136°41'0 0.0
2018-Feb-18 19:59N 34°53' E 136°41'0 0.1
2018-Feb-18 19:30N 34°53' E 136°41'611.0
2018-Feb-18 18:59N 34°49' E 136°45'613.1
2018-Feb-18 18:30N 34°44' E 136°50'1512.8
2018-Feb-18 17:19N 34°33' E 137°03'513.1
2018-Feb-18 16:55N 34°34' E 137°09'6212.0
2018-Feb-18 11:47N 34°39' E 138°24'512.2
2018-Feb-18 11:22N 34°39' E 138°30'411.9
2018-Feb-18 11:00N 34°38' E 138°35'712.3
2018-Feb-18 10:27N 34°37' E 138°43'612.0
2018-Feb-18 09:59N 34°35' E 138°50'511.3
2018-Feb-18 09:30N 34°35' E 138°56'713.0
2018-Feb-18 08:58N 34°40' E 139°02'813.9
2018-Feb-18 08:25N 34°47' E 139°07'1113.4
2018-Feb-18 07:37N 34°55' E 139°15'212.7
2018-Feb-18 07:28N 34°56' E 139°17'612.2
2018-Feb-18 07:00N 34°58' E 139°24'711.6
2018-Feb-18 06:25N 35°02' E 139°31'512.3
2018-Feb-18 05:59N 35°04' E 139°36'613.4
2018-Feb-18 05:30N 35°08' E 139°43'612.9
2018-Feb-18 05:00N 35°14' E 139°46'612.5
2018-Feb-18 04:30N 35°19' E 139°43'612.1
2018-Feb-18 04:01N 35°25' E 139°44'713.6
2018-Feb-18 03:31N 35°29' E 139°51'712.9
2018-Feb-18 03:00N 35°35' E 139°54'0 0.2
2018-Feb-18 02:30N 35°35' E 139°54'0 0.0
2018-Feb-18 01:50N 35°35' E 139°54'0 0.0
2018-Feb-18 01:29N 35°35' E 139°54'0 0.0
2018-Feb-18 00:59N 35°35' E 139°54'0 0.0
2018-Feb-18 00:26N 35°35' E 139°54'0 0.0
2018-Feb-17 23:59N 35°35' E 139°54'0 0.0
2018-Feb-17 23:23N 35°35' E 139°54'0 0.0
2018-Feb-17 22:59N 35°35' E 139°54'0 0.1
2018-Feb-17 22:23N 35°35' E 139°54'0 0.1
2018-Feb-17 21:56N 35°35' E 139°54'0 0.0
2018-Feb-17 21:29N 35°35' E 139°54'0 0.0
2018-Feb-17 20:56N 35°35' E 139°54'0 0.1
2018-Feb-17 20:23N 35°35' E 139°54'0 0.1
2018-Feb-17 19:50N 35°35' E 139°54'0 0.0
2018-Feb-17 19:29N 35°35' E 139°54'0 0.0
2018-Feb-17 18:59N 35°35' E 139°54'0 0.0
2018-Feb-17 18:29N 35°35' E 139°54'0 0.0
2018-Feb-17 17:59N 35°35' E 139°54'0 0.0
2018-Feb-17 17:29N 35°35' E 139°54'0 0.0
2018-Feb-17 16:59N 35°35' E 139°54'0 0.0
2018-Feb-17 16:29N 35°35' E 139°54'0 0.1
2018-Feb-17 15:41N 35°35' E 139°54'0 0.0
2018-Feb-17 15:29N 35°35' E 139°54'0 0.0
2018-Feb-17 14:53N 35°35' E 139°54'0 0.0
2018-Feb-17 14:29N 35°35' E 139°54'0 0.0
2018-Feb-17 13:59N 35°35' E 139°54'0 0.1
2018-Feb-17 13:29N 35°35' E 139°54'0 0.1
2018-Feb-17 12:56N 35°35' E 139°54'0 0.1
2018-Feb-17 12:29N 35°35' E 139°54'0 0.1
2018-Feb-17 11:59N 35°35' E 139°54'0 0.0
2018-Feb-17 11:26N 35°35' E 139°54'0 0.0
2018-Feb-17 10:59N 35°35' E 139°54'0 0.1
2018-Feb-17 10:29N 35°35' E 139°54'0 0.1
2018-Feb-17 09:56N 35°35' E 139°54'0 0.0
2018-Feb-17 09:26N 35°35' E 139°54'0 0.1
2018-Feb-17 08:59N 35°35' E 139°54'0 0.1
2018-Feb-17 08:29N 35°35' E 139°54'0 0.0
2018-Feb-17 07:50N 35°35' E 139°54'0 0.1
2018-Feb-17 07:23N 35°35' E 139°54'0 0.1
2018-Feb-17 06:50N 35°35' E 139°54'0 0.1
2018-Feb-17 06:11N 35°35' E 139°54'0 0.2
2018-Feb-17 05:59N 35°35' E 139°54'0 0.0
2018-Feb-17 04:14N 35°35' E 139°54'0 0.0
2018-Feb-17 03:59N 35°35' E 139°54'4 7.5
2018-Feb-17 03:30N 35°34' E 139°59'4 7.8
2018-Feb-17 02:57N 35°32' E 140°03'0 0.0
2018-Feb-17 02:23N 35°32' E 140°03'0 0.0
2018-Feb-17 02:00N 35°32' E 140°03'0 0.0
2018-Feb-17 01:28N 35°32' E 140°03'0 0.0
2018-Feb-17 00:46N 35°32' E 140°03'0 0.0
2018-Feb-17 00:07N 35°32' E 140°03'0 0.0
2018-Feb-16 23:58N 35°32' E 140°03'0 0.5
2018-Feb-16 23:30N 35°32' E 140°03'1 2.4
2018-Feb-16 23:00N 35°33' E 140°02'0 0.1
2018-Feb-16 22:30N 35°33' E 140°02'0 0.0
2018-Feb-16 22:00N 35°33' E 140°02'0 0.0
2018-Feb-16 21:25N 35°33' E 140°02'0 0.0
2018-Feb-16 20:55N 35°33' E 140°02'0 0.0
2018-Feb-16 20:25N 35°33' E 140°02'0 0.0
2018-Feb-16 19:55N 35°33' E 140°02'0 0.0
2018-Feb-16 19:28N 35°33' E 140°02'0 0.0
2018-Feb-16 18:55N 35°33' E 140°02'0 0.0
2018-Feb-16 18:25N 35°33' E 140°02'0 0.0
2018-Feb-16 17:55N 35°33' E 140°02'0 0.0
2018-Feb-16 17:25N 35°33' E 140°02'0 0.0
2018-Feb-16 16:55N 35°33' E 140°02'0 0.0
2018-Feb-16 16:25N 35°33' E 140°02'0 0.0
2018-Feb-16 15:55N 35°33' E 140°02'0 0.0
2018-Feb-16 15:25N 35°33' E 140°02'0 0.0
2018-Feb-16 14:55N 35°33' E 140°02'0 0.1
2018-Feb-16 14:25N 35°33' E 140°02'0 0.0
2018-Feb-16 13:55N 35°33' E 140°02'0 0.0
2018-Feb-16 13:28N 35°33' E 140°02'0 0.0
2018-Feb-16 12:55N 35°33' E 140°02'0 0.0
2018-Feb-16 12:28N 35°33' E 140°02'0 0.0
2018-Feb-16 11:55N 35°33' E 140°02'0 0.0
2018-Feb-16 11:25N 35°33' E 140°02'0 0.0
2018-Feb-16 10:55N 35°33' E 140°02'0 0.0
2018-Feb-16 10:25N 35°33' E 140°02'0 0.0
2018-Feb-16 09:55N 35°33' E 140°02'0 0.0
2018-Feb-16 09:28N 35°33' E 140°02'0 0.0
2018-Feb-16 08:55N 35°33' E 140°02'0 0.0
2018-Feb-16 08:25N 35°33' E 140°02'0 0.0
2018-Feb-16 07:55N 35°33' E 140°02'0 0.0
2018-Feb-16 07:28N 35°33' E 140°02'0 0.0
2018-Feb-16 06:58N 35°33' E 140°02'0 0.0
2018-Feb-16 06:25N 35°33' E 140°02'0 0.1
2018-Feb-16 05:55N 35°33' E 140°02'0 0.0
2018-Feb-16 05:25N 35°33' E 140°02'0 0.0
2018-Feb-16 04:55N 35°33' E 140°02'0 0.0
2018-Feb-16 04:25N 35°33' E 140°02'0 0.0
2018-Feb-16 03:55N 35°33' E 140°02'0 0.0
2018-Feb-16 03:25N 35°33' E 140°02'0 0.1
2018-Feb-16 02:58N 35°33' E 140°02'0 0.0
2018-Feb-16 02:28N 35°33' E 140°02'0 0.0
2018-Feb-16 01:55N 35°33' E 140°02'0 0.0
2018-Feb-16 01:25N 35°33' E 140°02'0 0.0
2018-Feb-16 00:55N 35°33' E 140°02'0 0.0
2018-Feb-16 00:25N 35°33' E 140°02'0 0.1
2018-Feb-16 00:00N 35°33' E 140°02'4 8.6
2018-Feb-15 23:30N 35°31' E 139°57'612.2
2018-Feb-15 23:01N 35°28' E 139°51'611.9
2018-Feb-15 22:31N 35°23' E 139°46'611.2
2018-Feb-15 22:00N 35°18' E 139°45'611.9
2018-Feb-15 21:30N 35°12' E 139°47'611.7
2018-Feb-15 21:00N 35°06' E 139°45'612.0
2018-Feb-15 20:29N 35°02' E 139°40'712.4
2018-Feb-15 19:53N 34°57' E 139°33'513.8
2018-Feb-15 19:30N 34°54' E 139°27'714.0
2018-Feb-15 19:00N 34°50' E 139°20'713.4
2018-Feb-15 18:30N 34°46' E 139°14'612.3
2018-Feb-15 18:00N 34°42' E 139°08'611.6
2018-Feb-15 17:30N 34°39' E 139°02'611.5
2018-Feb-15 17:00N 34°36' E 138°57'612.5
2018-Feb-15 16:30N 34°34' E 138°49'812.8
2018-Feb-15 15:55N 34°33' E 138°40'512.8
2018-Feb-15 15:30N 34°33' E 138°34'713.1
2018-Feb-15 15:00N 34°33' E 138°26'613.2
2018-Feb-15 14:30N 34°33' E 138°18'714.0
2018-Feb-15 14:00N 34°32' E 138°09'713.5
2018-Feb-15 13:30N 34°33' E 138°01'3812.4
2018-Feb-15 10:26N 34°32' E 137°15'1912.2
2018-Feb-15 08:52N 34°38' E 136°53'512.8
2018-Feb-15 08:30N 34°42' E 136°49'613.0
2018-Feb-15 08:00N 34°47' E 136°46'612.7
2018-Feb-15 07:30N 34°53' E 136°43'611.1
2018-Feb-15 07:00N 34°58' E 136°39'0 0.8
2018-Feb-15 06:30N 34°58' E 136°39'0 0.0
2018-Feb-15 05:58N 34°58' E 136°39'0 0.0
2018-Feb-15 05:30N 34°58' E 136°39'0 0.0
2018-Feb-15 05:00N 34°58' E 136°39'0 0.0
2018-Feb-15 04:29N 34°58' E 136°39'0 0.0
2018-Feb-15 04:00N 34°58' E 136°39'0 0.1
2018-Feb-15 03:30N 34°58' E 136°39'5 9.4
2018-Feb-15 03:00N 34°55' E 136°43'713.7
2018-Feb-15 02:30N 34°48' E 136°46'713.2
2018-Feb-15 02:00N 34°43' E 136°51'3410.6
2018-Feb-14 22:45N 34°09' E 136°48'3113.5
2018-Feb-14 20:29N 33°48' E 136°21'6410.5
2018-Feb-14 14:26N 33°50' E 135°04'614.1
2018-Feb-14 14:00N 33°54' E 134°59'713.7
2018-Feb-14 13:30N 33°59' E 134°54'713.6
2018-Feb-14 13:01N 34°04' E 134°49'713.8
2018-Feb-14 12:29N 34°10' E 134°43'713.8
2018-Feb-14 11:59N 34°15' E 134°38'613.4
2018-Feb-14 11:30N 34°18' E 134°31'713.3
2018-Feb-14 11:00N 34°21' E 134°24'712.9
2018-Feb-14 10:29N 34°23' E 134°16'612.2
2018-Feb-14 09:58N 34°26' E 134°09'10 0.4
2018-Feb-13 09:14N 34°25' E 134°21'312.6
2018-Feb-13 09:00N 34°26' E 134°24'612.8
2018-Feb-13 08:31N 34°28' E 134°31'612.3
2018-Feb-13 08:00N 34°31' E 134°38'612.1
2018-Feb-13 07:31N 34°33' E 134°45'611.9
2018-Feb-13 07:01N 34°35' E 134°52'611.5
2018-Feb-13 06:30N 34°37' E 134°58'5 9.8
2018-Feb-13 06:01N 34°36' E 135°04'611.6
2018-Feb-13 05:30N 34°36' E 135°11'612.2
2018-Feb-13 05:00N 34°36' E 135°18'611.4
2018-Feb-13 04:30N 34°35' E 135°25'1 2.4
2018-Feb-13 04:01N 34°34' E 135°26'0 0.0
2018-Feb-13 03:31N 34°34' E 135°26'0 0.0
2018-Feb-13 03:00N 34°34' E 135°26'0 0.0
2018-Feb-13 02:30N 34°34' E 135°26'0 0.0
2018-Feb-13 02:00N 34°34' E 135°26'0 0.0
2018-Feb-13 01:30N 34°34' E 135°26'0 0.0
2018-Feb-13 01:01N 34°34' E 135°26'0 0.0
2018-Feb-13 00:31N 34°34' E 135°26'0 0.0
2018-Feb-13 00:01N 34°34' E 135°26'0 0.0
2018-Feb-12 23:30N 34°34' E 135°26'0 0.0
2018-Feb-12 23:00N 34°34' E 135°26'1 2.2
2018-Feb-12 22:30N 34°35' E 135°25'4 7.1
2018-Feb-12 22:00N 34°36' E 135°21'2 4.3
2018-Feb-12 21:30N 34°36' E 135°18'0 0.0
2018-Feb-12 21:01N 34°36' E 135°18'0 0.0
2018-Feb-12 20:29N 34°36' E 135°18'0 0.0
2018-Feb-12 19:59N 34°36' E 135°18'0 0.0
2018-Feb-12 19:29N 34°36' E 135°18'0 0.0
2018-Feb-12 18:59N 34°36' E 135°18'0 0.0
2018-Feb-12 18:29N 34°36' E 135°18'0 0.0
2018-Feb-12 17:59N 34°36' E 135°18'0 0.0
2018-Feb-12 17:29N 34°36' E 135°18'0 0.0
2018-Feb-12 16:59N 34°36' E 135°18'0 0.0
2018-Feb-12 16:29N 34°36' E 135°18'0 0.0
2018-Feb-12 15:59N 34°35' E 135°18'0 0.0
2018-Feb-12 15:29N 34°36' E 135°18'0 0.0
2018-Feb-12 14:59N 34°36' E 135°18'0 0.0
2018-Feb-12 14:29N 34°36' E 135°18'0 0.0
2018-Feb-12 13:59N 34°36' E 135°18'0 0.0
2018-Feb-12 13:29N 34°36' E 135°18'0 0.0
2018-Feb-12 12:59N 34°36' E 135°18'0 0.0
2018-Feb-12 12:29N 34°36' E 135°18'0 0.0
2018-Feb-12 11:59N 34°36' E 135°18'0 0.0
2018-Feb-12 11:29N 34°36' E 135°18'0 0.0
2018-Feb-12 10:59N 34°36' E 135°18'0 0.0
2018-Feb-12 10:29N 34°36' E 135°18'0 0.0
2018-Feb-12 09:59N 34°36' E 135°18'0 0.0
2018-Feb-12 09:29N 34°36' E 135°18'0 0.2
2018-Feb-12 09:01N 34°35' E 135°18'510.4
2018-Feb-12 08:31N 34°35' E 135°12'713.7
2018-Feb-12 08:00N 34°35' E 135°04'612.3
2018-Feb-12 07:30N 34°36' E 134°56'713.9
2018-Feb-12 07:00N 34°33' E 134°48'713.6
2018-Feb-12 06:30N 34°30' E 134°41'713.6
2018-Feb-12 06:00N 34°28' E 134°33'713.5
2018-Feb-12 05:30N 34°25' E 134°25'813.8
2018-Feb-12 04:54N 34°24' E 134°16'614.4
2018-Feb-12 04:29N 34°26' E 134°09'  

Dump ship's entire track history